Terminal Aerodrome Forecast
Issued by NWS

Current Version | Previous Version | Text Only | Print | Product List | Glossary On
Versions: 1 2 3 4 5 6 7 8 9 10 11 12 13 14
763
FTUS43 KAPX 230520
TAFAPN
TAF
KAPN 230520Z 2306/2406 21004KT P6SM SKC
     FM230800 23005KT P6SM SKC WS015/26030KT
     FM231400 31008KT P6SM FEW150
     FM231800 34009KT P6SM BKN100
     FM240200 35005KT P6SM BKN070=

USA.gov is the U.S. government's official web portal to all federal, state and local government web resources and services.